sensor_id;sensor_type;location;lat;lon;timestamp;noise_LAeq;noise_LA_min;noise_LA_max;noise_LA01;noise_LA95
70077;Laerm;57448;51.490;5.436;2023-06-22T00:01:44;108.42;97.15;113.96;;
70077;Laerm;57448;51.490;5.436;2023-06-22T00:03:45;109.21;99.17;113.61;;
70077;Laerm;57448;51.490;5.436;2023-06-22T00:05:47;109.20;93.07;114.23;;
70077;Laerm;57448;51.490;5.436;2023-06-22T00:07:48;109.05;94.58;114.83;;
70077;Laerm;57448;51.490;5.436;2023-06-22T00:09:49;108.81;98.26;113.24;;
70077;Laerm;57448;51.490;5.436;2023-06-22T00:11:51;108.03;98.42;112.38;;
70077;Laerm;57448;51.490;5.436;2023-06-22T00:13:52;109.04;101.96;113.33;;
70077;Laerm;57448;51.490;5.436;2023-06-22T00:15:55;108.21;98.71;113.15;;
70077;Laerm;57448;51.490;5.436;2023-06-22T00:17:56;108.26;96.04;112.77;;
70077;Laerm;57448;51.490;5.436;2023-06-22T00:19:59;109.02;100.61;113.32;;
70077;Laerm;57448;51.490;5.436;2023-06-22T00:22:00;108.56;99.17;112.94;;
70077;Laerm;57448;51.490;5.436;2023-06-22T00:24:03;108.17;98.40;112.87;;
70077;Laerm;57448;51.490;5.436;2023-06-22T00:26:05;107.99;97.11;112.41;;
70077;Laerm;57448;51.490;5.436;2023-06-22T00:28:06;98.79;34.06;112.03;;
70077;Laerm;57448;51.490;5.436;2023-06-22T00:30:09;36.08;31.99;44.73;;
70077;Laerm;57448;51.490;5.436;2023-06-22T00:32:11;37.93;33.80;44.47;;
70077;Laerm;57448;51.490;5.436;2023-06-22T00:34:13;37.71;31.95;43.77;;
70077;Laerm;57448;51.490;5.436;2023-06-22T00:36:14;35.52;31.33;41.99;;
70077;Laerm;57448;51.490;5.436;2023-06-22T00:38:16;36.83;32.57;43.19;;
70077;Laerm;57448;51.490;5.436;2023-06-22T00:40:17;37.50;32.66;45.22;;
70077;Laerm;57448;51.490;5.436;2023-06-22T00:42:21;38.67;33.55;45.42;;
70077;Laerm;57448;51.490;5.436;2023-06-22T00:44:23;39.22;32.88;51.29;;
70077;Laerm;57448;51.490;5.436;2023-06-22T00:46:24;38.12;33.95;43.31;;
70077;Laerm;57448;51.490;5.436;2023-06-22T00:48:27;38.72;33.44;46.19;;
70077;Laerm;57448;51.490;5.436;2023-06-22T00:50:29;36.51;32.07;42.23;;
70077;Laerm;57448;51.490;5.436;2023-06-22T00:52:33;37.52;33.12;44.13;;
70077;Laerm;57448;51.490;5.436;2023-06-22T00:54:35;36.11;32.81;42.98;;
70077;Laerm;57448;51.490;5.436;2023-06-22T00:56:36;37.20;32.79;44.29;;
70077;Laerm;57448;51.490;5.436;2023-06-22T00:58:38;38.34;34.02;45.23;;
70077;Laerm;57448;51.490;5.436;2023-06-22T01:00:41;36.67;32.75;45.18;;
70077;Laerm;57448;51.490;5.436;2023-06-22T01:02:42;36.20;32.24;52.20;;
70077;Laerm;57448;51.490;5.436;2023-06-22T01:04:46;36.48;32.18;44.13;;
70077;Laerm;57448;51.490;5.436;2023-06-22T01:06:52;36.97;33.61;42.32;;
70077;Laerm;57448;51.490;5.436;2023-06-22T01:08:57;38.45;34.70;44.46;;
70077;Laerm;57448;51.490;5.436;2023-06-22T01:11:03;37.59;34.15;43.39;;
70077;Laerm;57448;51.490;5.436;2023-06-22T01:13:14;36.88;32.93;43.62;;
70077;Laerm;57448;51.490;5.436;2023-06-22T01:15:18;35.15;32.38;38.49;;
70077;Laerm;57448;51.490;5.436;2023-06-22T01:17:22;36.05;32.25;43.45;;
70077;Laerm;57448;51.490;5.436;2023-06-22T01:19:29;37.08;33.48;42.28;;
70077;Laerm;57448;51.490;5.436;2023-06-22T01:21:37;36.42;32.64;41.91;;
70077;Laerm;57448;51.490;5.436;2023-06-22T01:23:42;37.53;33.37;41.64;;
70077;Laerm;57448;51.490;5.436;2023-06-22T01:25:52;36.92;33.10;43.66;;
70077;Laerm;57448;51.490;5.436;2023-06-22T01:27:56;35.83;32.21;43.65;;
70077;Laerm;57448;51.490;5.436;2023-06-22T01:30:02;37.83;32.88;46.95;;
70077;Laerm;57448;51.490;5.436;2023-06-22T01:32:05;36.15;32.53;42.38;;
70077;Laerm;57448;51.490;5.436;2023-06-22T01:34:07;36.86;32.55;43.72;;
70077;Laerm;57448;51.490;5.436;2023-06-22T01:36:09;35.94;32.76;45.59;;
70077;Laerm;57448;51.490;5.436;2023-06-22T01:38:11;35.81;32.12;47.99;;
70077;Laerm;57448;51.490;5.436;2023-06-22T01:40:12;37.73;33.05;45.17;;
70077;Laerm;57448;51.490;5.436;2023-06-22T01:42:14;38.03;34.14;44.85;;
70077;Laerm;57448;51.490;5.436;2023-06-22T01:44:16;36.52;32.18;46.20;;
70077;Laerm;57448;51.490;5.436;2023-06-22T01:46:19;36.63;32.18;42.30;;
70077;Laerm;57448;51.490;5.436;2023-06-22T01:48:22;37.92;32.98;44.45;;
70077;Laerm;57448;51.490;5.436;2023-06-22T01:50:23;37.70;33.40;43.57;;
70077;Laerm;57448;51.490;5.436;2023-06-22T01:52:25;38.05;34.02;43.79;;
70077;Laerm;57448;51.490;5.436;2023-06-22T01:54:26;38.92;34.38;44.37;;
70077;Laerm;57448;51.490;5.436;2023-06-22T01:56:27;37.47;33.23;41.20;;
70077;Laerm;57448;51.490;5.436;2023-06-22T01:58:29;37.24;33.03;43.32;;
70077;Laerm;57448;51.490;5.436;2023-06-22T02:00:31;38.80;34.50;44.91;;
70077;Laerm;57448;51.490;5.436;2023-06-22T02:02:36;38.29;33.92;55.65;;
70077;Laerm;57448;51.490;5.436;2023-06-22T02:04:41;38.02;34.87;43.85;;
70077;Laerm;57448;51.490;5.436;2023-06-22T02:06:44;39.44;34.74;46.12;;
70077;Laerm;57448;51.490;5.436;2023-06-22T02:08:48;37.98;34.27;43.77;;
70077;Laerm;57448;51.490;5.436;2023-06-22T02:10:51;38.79;34.39;45.51;;
70077;Laerm;57448;51.490;5.436;2023-06-22T02:12:54;38.15;33.51;45.45;;
70077;Laerm;57448;51.490;5.436;2023-06-22T02:14:55;39.19;33.64;46.55;;
70077;Laerm;57448;51.490;5.436;2023-06-22T02:16:57;39.29;34.81;44.95;;
70077;Laerm;57448;51.490;5.436;2023-06-22T02:19:02;39.75;34.52;47.75;;
70077;Laerm;57448;51.490;5.436;2023-06-22T02:21:04;40.81;34.99;50.03;;
70077;Laerm;57448;51.490;5.436;2023-06-22T02:23:05;41.37;35.13;54.09;;
70077;Laerm;57448;51.490;5.436;2023-06-22T02:25:07;41.45;34.65;50.70;;
70077;Laerm;57448;51.490;5.436;2023-06-22T02:27:08;42.57;37.22;50.74;;
70077;Laerm;57448;51.490;5.436;2023-06-22T02:29:10;42.72;36.67;54.25;;
70077;Laerm;57448;51.490;5.436;2023-06-22T02:31:11;43.46;35.78;57.83;;
70077;Laerm;57448;51.490;5.436;2023-06-22T02:33:13;40.36;35.85;48.35;;
70077;Laerm;57448;51.490;5.436;2023-06-22T02:35:16;43.26;37.60;51.52;;
70077;Laerm;57448;51.490;5.436;2023-06-22T02:37:17;48.27;37.62;63.28;;
70077;Laerm;57448;51.490;5.436;2023-06-22T02:39:19;44.45;37.06;57.55;;
70077;Laerm;57448;51.490;5.436;2023-06-22T02:41:22;41.19;36.37;49.05;;
70077;Laerm;57448;51.490;5.436;2023-06-22T02:43:23;43.24;39.35;49.44;;
70077;Laerm;57448;51.490;5.436;2023-06-22T02:45:24;43.23;38.37;53.26;;
70077;Laerm;57448;51.490;5.436;2023-06-22T02:47:26;42.98;38.09;50.05;;
70077;Laerm;57448;51.490;5.436;2023-06-22T02:49:27;42.00;37.63;51.89;;
70077;Laerm;57448;51.490;5.436;2023-06-22T02:51:30;47.68;38.06;62.04;;
70077;Laerm;57448;51.490;5.436;2023-06-22T02:53:32;48.94;37.85;61.69;;
70077;Laerm;57448;51.490;5.436;2023-06-22T02:55:33;48.92;36.87;62.09;;
70077;Laerm;57448;51.490;5.436;2023-06-22T02:57:34;46.73;37.28;60.25;;
70077;Laerm;57448;51.490;5.436;2023-06-22T02:59:36;42.82;37.71;49.38;;
70077;Laerm;57448;51.490;5.436;2023-06-22T03:01:40;43.25;38.20;52.70;;
70077;Laerm;57448;51.490;5.436;2023-06-22T03:03:42;41.67;37.86;48.51;;
70077;Laerm;57448;51.490;5.436;2023-06-22T03:05:43;41.98;36.84;47.40;;
70077;Laerm;57448;51.490;5.436;2023-06-22T03:07:46;43.05;38.69;50.30;;
70077;Laerm;57448;51.490;5.436;2023-06-22T03:09:47;50.60;39.45;67.10;;
70077;Laerm;57448;51.490;5.436;2023-06-22T03:11:49;46.57;37.98;60.09;;
70077;Laerm;57448;51.490;5.436;2023-06-22T03:13:50;43.56;39.34;55.72;;
70077;Laerm;57448;51.490;5.436;2023-06-22T03:15:52;44.05;39.85;52.24;;
70077;Laerm;57448;51.490;5.436;2023-06-22T03:17:53;43.35;39.34;57.29;;
70077;Laerm;57448;51.490;5.436;2023-06-22T03:19:54;57.32;38.98;80.98;;
70077;Laerm;57448;51.490;5.436;2023-06-22T03:21:56;53.10;39.77;79.54;;
70077;Laerm;57448;51.490;5.436;2023-06-22T03:23:58;47.19;40.54;58.81;;
70077;Laerm;57448;51.490;5.436;2023-06-22T03:26:00;46.74;40.61;58.69;;
70077;Laerm;57448;51.490;5.436;2023-06-22T03:28:01;47.35;40.50;64.69;;
70077;Laerm;57448;51.490;5.436;2023-06-22T03:30:03;44.87;40.13;60.47;;
70077;Laerm;57448;51.490;5.436;2023-06-22T03:32:05;44.73;41.06;52.32;;
70077;Laerm;57448;51.490;5.436;2023-06-22T03:34:06;44.84;40.97;55.05;;
70077;Laerm;57448;51.490;5.436;2023-06-22T03:36:08;44.40;40.05;56.79;;
70077;Laerm;57448;51.490;5.436;2023-06-22T03:38:09;44.45;40.35;55.08;;
70077;Laerm;57448;51.490;5.436;2023-06-22T03:40:12;46.71;42.47;59.69;;
70077;Laerm;57448;51.490;5.436;2023-06-22T03:42:13;46.14;41.52;57.65;;
70077;Laerm;57448;51.490;5.436;2023-06-22T03:44:15;50.46;42.26;66.35;;
70077;Laerm;57448;51.490;5.436;2023-06-22T03:46:16;46.88;41.97;62.27;;
70077;Laerm;57448;51.490;5.436;2023-06-22T03:48:18;47.13;42.49;60.16;;
70077;Laerm;57448;51.490;5.436;2023-06-22T03:50:19;46.33;42.74;54.72;;
70077;Laerm;57448;51.490;5.436;2023-06-22T03:52:21;46.47;42.72;55.19;;
70077;Laerm;57448;51.490;5.436;2023-06-22T03:54:23;46.39;42.65;55.12;;
70077;Laerm;57448;51.490;5.436;2023-06-22T03:56:25;45.98;41.65;57.43;;
70077;Laerm;57448;51.490;5.436;2023-06-22T03:58:27;46.50;41.54;58.26;;
70077;Laerm;57448;51.490;5.436;2023-06-22T04:00:32;46.16;42.70;52.28;;
70077;Laerm;57448;51.490;5.436;2023-06-22T04:02:34;48.00;42.58;58.01;;
70077;Laerm;57448;51.490;5.436;2023-06-22T04:04:35;46.69;42.16;61.30;;
70077;Laerm;57448;51.490;5.436;2023-06-22T04:06:38;45.75;42.26;51.81;;
70077;Laerm;57448;51.490;5.436;2023-06-22T04:08:40;46.03;42.27;52.25;;
70077;Laerm;57448;51.490;5.436;2023-06-22T04:10:42;46.16;42.86;52.67;;
70077;Laerm;57448;51.490;5.436;2023-06-22T04:12:45;46.43;42.77;56.29;;
70077;Laerm;57448;51.490;5.436;2023-06-22T04:14:46;46.91;42.65;59.74;;
70077;Laerm;57448;51.490;5.436;2023-06-22T04:16:47;46.35;43.36;53.91;;
70077;Laerm;57448;51.490;5.436;2023-06-22T04:18:49;46.88;43.40;50.77;;
70077;Laerm;57448;51.490;5.436;2023-06-22T04:20:50;47.49;43.81;55.31;;
70077;Laerm;57448;51.490;5.436;2023-06-22T04:22:52;47.42;43.89;54.89;;
70077;Laerm;57448;51.490;5.436;2023-06-22T04:24:53;47.61;44.09;56.08;;
70077;Laerm;57448;51.490;5.436;2023-06-22T04:26:55;47.99;43.18;58.10;;
70077;Laerm;57448;51.490;5.436;2023-06-22T04:28:58;48.37;44.16;56.11;;
70077;Laerm;57448;51.490;5.436;2023-06-22T04:30:59;47.31;43.14;54.11;;
70077;Laerm;57448;51.490;5.436;2023-06-22T04:33:02;47.60;44.20;60.47;;
70077;Laerm;57448;51.490;5.436;2023-06-22T04:35:04;47.92;43.34;55.56;;
70077;Laerm;57448;51.490;5.436;2023-06-22T04:37:06;47.18;43.83;56.51;;
70077;Laerm;57448;51.490;5.436;2023-06-22T04:39:08;47.82;44.22;58.83;;
70077;Laerm;57448;51.490;5.436;2023-06-22T04:41:09;48.85;44.17;59.05;;
70077;Laerm;57448;51.490;5.436;2023-06-22T04:43:14;48.69;45.11;60.05;;
70077;Laerm;57448;51.490;5.436;2023-06-22T04:45:17;47.81;44.20;57.19;;
70077;Laerm;57448;51.490;5.436;2023-06-22T04:47:18;48.49;44.85;66.84;;
70077;Laerm;57448;51.490;5.436;2023-06-22T04:49:20;48.52;45.13;56.50;;
70077;Laerm;57448;51.490;5.436;2023-06-22T04:51:22;48.62;44.62;59.00;;
70077;Laerm;57448;51.490;5.436;2023-06-22T04:53:23;47.38;43.54;53.43;;
70077;Laerm;57448;51.490;5.436;2023-06-22T04:55:25;47.21;44.07;58.23;;
70077;Laerm;57448;51.490;5.436;2023-06-22T04:57:27;47.66;44.24;58.17;;
70077;Laerm;57448;51.490;5.436;2023-06-22T04:59:32;47.72;44.78;53.18;;
70077;Laerm;57448;51.490;5.436;2023-06-22T05:01:34;47.47;44.39;54.69;;
70077;Laerm;57448;51.490;5.436;2023-06-22T05:03:36;47.33;43.77;53.35;;
70077;Laerm;57448;51.490;5.436;2023-06-22T05:05:37;47.97;44.74;54.68;;
70077;Laerm;57448;51.490;5.436;2023-06-22T05:07:39;47.64;44.11;56.43;;
70077;Laerm;57448;51.490;5.436;2023-06-22T05:09:42;47.25;43.35;58.50;;
70077;Laerm;57448;51.490;5.436;2023-06-22T05:11:44;48.46;45.01;56.03;;
70077;Laerm;57448;51.490;5.436;2023-06-22T05:13:45;47.92;44.31;54.13;;
70077;Laerm;57448;51.490;5.436;2023-06-22T05:15:46;47.04;43.83;56.91;;
70077;Laerm;57448;51.490;5.436;2023-06-22T05:17:49;47.55;44.54;60.89;;
70077;Laerm;57448;51.490;5.436;2023-06-22T05:19:50;48.09;44.43;65.33;;
70077;Laerm;57448;51.490;5.436;2023-06-22T05:21:52;47.89;44.49;54.78;;
70077;Laerm;57448;51.490;5.436;2023-06-22T05:23:53;47.25;44.24;55.19;;
70077;Laerm;57448;51.490;5.436;2023-06-22T05:25:56;47.22;44.18;53.82;;
70077;Laerm;57448;51.490;5.436;2023-06-22T05:27:57;48.50;44.01;66.53;;
70077;Laerm;57448;51.490;5.436;2023-06-22T05:29:59;47.60;44.24;58.44;;
70077;Laerm;57448;51.490;5.436;2023-06-22T05:32:00;48.51;44.67;57.68;;
70077;Laerm;57448;51.490;5.436;2023-06-22T05:34:03;48.86;44.10;58.15;;
70077;Laerm;57448;51.490;5.436;2023-06-22T05:36:04;48.83;45.40;55.04;;
70077;Laerm;57448;51.490;5.436;2023-06-22T05:38:06;48.37;45.19;56.03;;
70077;Laerm;57448;51.490;5.436;2023-06-22T05:40:08;49.46;45.69;63.67;;
70077;Laerm;57448;51.490;5.436;2023-06-22T05:42:10;50.39;46.48;57.42;;
70077;Laerm;57448;51.490;5.436;2023-06-22T05:44:11;48.50;45.26;54.82;;
70077;Laerm;57448;51.490;5.436;2023-06-22T05:46:12;49.28;45.56;57.40;;
70077;Laerm;57448;51.490;5.436;2023-06-22T05:48:14;49.29;45.87;56.53;;
70077;Laerm;57448;51.490;5.436;2023-06-22T05:50:16;48.75;44.52;63.03;;
70077;Laerm;57448;51.490;5.436;2023-06-22T05:52:18;48.18;45.19;56.26;;
70077;Laerm;57448;51.490;5.436;2023-06-22T05:54:19;48.63;44.55;51.98;;
70077;Laerm;57448;51.490;5.436;2023-06-22T05:56:21;48.21;44.85;55.83;;
70077;Laerm;57448;51.490;5.436;2023-06-22T05:58:22;48.96;45.71;56.05;;
70077;Laerm;57448;51.490;5.436;2023-06-22T06:00:23;48.41;45.62;58.86;;
70077;Laerm;57448;51.490;5.436;2023-06-22T06:02:25;48.97;45.15;53.90;;
70077;Laerm;57448;51.490;5.436;2023-06-22T06:04:26;60.33;49.64;72.88;;
70077;Laerm;57448;51.490;5.436;2023-06-22T06:06:29;60.44;44.45;75.11;;
70077;Laerm;57448;51.490;5.436;2023-06-22T06:08:30;51.16;44.05;68.43;;
70077;Laerm;57448;51.490;5.436;2023-06-22T06:10:32;50.29;44.18;75.77;;
70077;Laerm;57448;51.490;5.436;2023-06-22T06:12:33;47.60;44.82;54.90;;
70077;Laerm;57448;51.490;5.436;2023-06-22T06:14:35;47.54;43.90;52.71;;
70077;Laerm;57448;51.490;5.436;2023-06-22T06:16:36;46.50;43.31;54.17;;
70077;Laerm;57448;51.490;5.436;2023-06-22T06:18:37;46.92;43.01;55.97;;
70077;Laerm;57448;51.490;5.436;2023-06-22T06:20:39;46.77;42.57;57.26;;
70077;Laerm;57448;51.490;5.436;2023-06-22T06:22:41;45.76;42.47;55.64;;
70077;Laerm;57448;51.490;5.436;2023-06-22T06:24:43;45.36;41.86;62.50;;
70077;Laerm;57448;51.490;5.436;2023-06-22T06:26:45;45.83;42.27;59.52;;
70077;Laerm;57448;51.490;5.436;2023-06-22T06:28:47;62.93;42.63;78.05;;
70077;Laerm;57448;51.490;5.436;2023-06-22T06:30:48;50.70;42.95;64.75;;
70077;Laerm;57448;51.490;5.436;2023-06-22T06:32:51;46.00;42.60;58.51;;
70077;Laerm;57448;51.490;5.436;2023-06-22T06:34:53;45.48;42.82;56.03;;
70077;Laerm;57448;51.490;5.436;2023-06-22T06:36:54;45.60;41.95;53.77;;
70077;Laerm;57448;51.490;5.436;2023-06-22T06:38:57;45.94;41.99;55.64;;
70077;Laerm;57448;51.490;5.436;2023-06-22T06:40:58;45.24;42.17;56.28;;
70077;Laerm;57448;51.490;5.436;2023-06-22T06:43:00;45.70;41.46;60.18;;
70077;Laerm;57448;51.490;5.436;2023-06-22T06:45:01;46.19;40.69;71.13;;
70077;Laerm;57448;51.490;5.436;2023-06-22T06:47:03;46.89;41.24;58.94;;
70077;Laerm;57448;51.490;5.436;2023-06-22T06:49:04;46.01;40.95;59.08;;
70077;Laerm;57448;51.490;5.436;2023-06-22T06:51:06;44.30;41.21;54.41;;
70077;Laerm;57448;51.490;5.436;2023-06-22T06:53:09;43.99;40.47;52.38;;
70077;Laerm;57448;51.490;5.436;2023-06-22T06:55:12;45.22;40.75;52.83;;
70077;Laerm;57448;51.490;5.436;2023-06-22T06:57:14;46.67;41.13;62.68;;
70077;Laerm;57448;51.490;5.436;2023-06-22T06:59:15;44.46;39.26;61.08;;
70077;Laerm;57448;51.490;5.436;2023-06-22T07:01:16;45.04;39.13;59.93;;
70077;Laerm;57448;51.490;5.436;2023-06-22T07:03:19;43.69;38.68;57.27;;
70077;Laerm;57448;51.490;5.436;2023-06-22T07:05:21;45.29;39.51;58.87;;
70077;Laerm;57448;51.490;5.436;2023-06-22T07:07:22;61.58;39.93;76.64;;
70077;Laerm;57448;51.490;5.436;2023-06-22T07:09:23;59.10;39.76;75.39;;
70077;Laerm;57448;51.490;5.436;2023-06-22T07:11:26;42.76;38.72;57.70;;
70077;Laerm;57448;51.490;5.436;2023-06-22T07:13:27;44.74;38.65;62.40;;
70077;Laerm;57448;51.490;5.436;2023-06-22T07:15:29;41.16;36.05;56.44;;
70077;Laerm;57448;51.490;5.436;2023-06-22T07:17:30;61.58;36.33;75.82;;
70077;Laerm;57448;51.490;5.436;2023-06-22T07:19:32;41.96;36.18;53.88;;
70077;Laerm;57448;51.490;5.436;2023-06-22T07:21:34;40.56;36.13;61.76;;
70077;Laerm;57448;51.490;5.436;2023-06-22T07:23:35;41.36;37.50;55.03;;
70077;Laerm;57448;51.490;5.436;2023-06-22T07:25:36;59.70;37.54;72.12;;
70077;Laerm;57448;51.490;5.436;2023-06-22T07:27:43;40.76;36.20;53.65;;
70077;Laerm;57448;51.490;5.436;2023-06-22T07:29:45;42.09;36.72;56.75;;
70077;Laerm;57448;51.490;5.436;2023-06-22T07:31:46;41.15;36.65;57.71;;
70077;Laerm;57448;51.490;5.436;2023-06-22T07:33:49;53.95;38.02;71.24;;
70077;Laerm;57448;51.490;5.436;2023-06-22T07:35:52;61.87;40.28;76.61;;
70077;Laerm;57448;51.490;5.436;2023-06-22T07:37:54;63.89;39.16;76.77;;
70077;Laerm;57448;51.490;5.436;2023-06-22T07:39:55;47.66;40.94;65.87;;
70077;Laerm;57448;51.490;5.436;2023-06-22T07:41:58;43.43;40.16;55.49;;
70077;Laerm;57448;51.490;5.436;2023-06-22T07:44:01;44.01;40.30;63.88;;
70077;Laerm;57448;51.490;5.436;2023-06-22T07:46:03;59.22;41.20;74.48;;
70077;Laerm;57448;51.490;5.436;2023-06-22T07:48:04;44.65;41.04;59.78;;
70077;Laerm;57448;51.490;5.436;2023-06-22T07:50:06;45.15;41.56;53.27;;
70077;Laerm;57448;51.490;5.436;2023-06-22T07:52:07;45.39;40.90;52.19;;
70077;Laerm;57448;51.490;5.436;2023-06-22T07:54:09;44.09;40.21;52.99;;
70077;Laerm;57448;51.490;5.436;2023-06-22T07:56:10;51.07;40.83;75.39;;
70077;Laerm;57448;51.490;5.436;2023-06-22T07:58:12;45.22;40.64;65.79;;
70077;Laerm;57448;51.490;5.436;2023-06-22T08:00:15;44.54;41.40;60.38;;
70077;Laerm;57448;51.490;5.436;2023-06-22T08:02:17;45.11;40.29;58.90;;
70077;Laerm;57448;51.490;5.436;2023-06-22T08:04:18;45.20;40.81;66.06;;
70077;Laerm;57448;51.490;5.436;2023-06-22T08:06:20;68.00;41.22;103.39;;
70077;Laerm;57448;51.490;5.436;2023-06-22T08:08:21;94.18;41.81;112.35;;
70077;Laerm;57448;51.490;5.436;2023-06-22T08:10:23;101.58;41.96;113.56;;
70077;Laerm;57448;51.490;5.436;2023-06-22T08:12:24;47.07;42.31;62.09;;
70077;Laerm;57448;51.490;5.436;2023-06-22T08:14:25;46.30;41.96;59.47;;
70077;Laerm;57448;51.490;5.436;2023-06-22T08:16:28;47.69;42.19;67.15;;
70077;Laerm;57448;51.490;5.436;2023-06-22T08:18:30;48.22;42.35;72.18;;
70077;Laerm;57448;51.490;5.436;2023-06-22T08:20:31;46.23;42.04;59.12;;
70077;Laerm;57448;51.490;5.436;2023-06-22T08:22:33;46.38;42.51;55.88;;
70077;Laerm;57448;51.490;5.436;2023-06-22T08:24:36;56.70;42.73;75.60;;
70077;Laerm;57448;51.490;5.436;2023-06-22T08:26:37;59.84;42.31;76.63;;
70077;Laerm;57448;51.490;5.436;2023-06-22T08:28:39;55.42;41.74;73.46;;
70077;Laerm;57448;51.490;5.436;2023-06-22T08:30:40;57.72;42.09;74.23;;
70077;Laerm;57448;51.490;5.436;2023-06-22T08:32:43;59.69;43.50;73.98;;
70077;Laerm;57448;51.490;5.436;2023-06-22T08:34:44;45.09;41.36;58.23;;
70077;Laerm;57448;51.490;5.436;2023-06-22T08:36:45;48.50;40.67;62.99;;
70077;Laerm;57448;51.490;5.436;2023-06-22T08:38:51;53.93;40.89;70.05;;
70077;Laerm;57448;51.490;5.436;2023-06-22T08:40:53;45.41;40.81;53.07;;
70077;Laerm;57448;51.490;5.436;2023-06-22T08:42:55;45.66;41.48;56.06;;
70077;Laerm;57448;51.490;5.436;2023-06-22T08:44:56;45.55;41.74;51.49;;
70077;Laerm;57448;51.490;5.436;2023-06-22T08:46:59;61.48;42.04;76.61;;
70077;Laerm;57448;51.490;5.436;2023-06-22T08:49:01;45.43;42.31;51.30;;
70077;Laerm;57448;51.490;5.436;2023-06-22T08:51:04;46.09;42.23;60.03;;
70077;Laerm;57448;51.490;5.436;2023-06-22T08:53:05;45.27;41.65;50.78;;
70077;Laerm;57448;51.490;5.436;2023-06-22T08:55:07;45.04;41.40;52.82;;
70077;Laerm;57448;51.490;5.436;2023-06-22T08:57:08;44.93;41.18;51.37;;
70077;Laerm;57448;51.490;5.436;2023-06-22T08:59:10;54.12;42.88;72.64;;
70077;Laerm;57448;51.490;5.436;2023-06-22T09:01:11;46.01;42.68;65.36;;
70077;Laerm;57448;51.490;5.436;2023-06-22T09:03:13;45.27;41.48;57.88;;
70077;Laerm;57448;51.490;5.436;2023-06-22T09:05:16;46.14;41.30;56.45;;
70077;Laerm;57448;51.490;5.436;2023-06-22T09:07:18;62.08;43.50;75.75;;
70077;Laerm;57448;51.490;5.436;2023-06-22T09:09:22;46.66;42.38;60.61;;
70077;Laerm;57448;51.490;5.436;2023-06-22T09:11:23;45.98;42.70;53.67;;
70077;Laerm;57448;51.490;5.436;2023-06-22T09:13:25;46.22;41.86;60.60;;
70077;Laerm;57448;51.490;5.436;2023-06-22T09:15:26;46.87;42.57;61.69;;
70077;Laerm;57448;51.490;5.436;2023-06-22T09:17:27;45.80;42.11;54.82;;
70077;Laerm;57448;51.490;5.436;2023-06-22T09:19:28;45.95;42.04;55.99;;
70077;Laerm;57448;51.490;5.436;2023-06-22T09:21:31;45.10;41.14;49.99;;
70077;Laerm;57448;51.490;5.436;2023-06-22T09:23:32;46.13;42.04;62.69;;
70077;Laerm;57448;51.490;5.436;2023-06-22T09:25:34;47.96;43.12;61.12;;
70077;Laerm;57448;51.490;5.436;2023-06-22T09:27:35;47.66;42.02;58.23;;
70077;Laerm;57448;51.490;5.436;2023-06-22T09:29:36;45.93;41.68;66.28;;
70077;Laerm;57448;51.490;5.436;2023-06-22T09:31:37;45.46;40.58;51.28;;
70077;Laerm;57448;51.490;5.436;2023-06-22T09:33:39;46.93;42.45;60.99;;
70077;Laerm;57448;51.490;5.436;2023-06-22T09:35:41;45.09;40.81;51.99;;
70077;Laerm;57448;51.490;5.436;2023-06-22T09:37:43;47.16;40.27;75.44;;
70077;Laerm;57448;51.490;5.436;2023-06-22T09:39:45;45.71;41.93;56.96;;
70077;Laerm;57448;51.490;5.436;2023-06-22T09:41:46;46.37;41.40;51.00;;
70077;Laerm;57448;51.490;5.436;2023-06-22T09:43:47;46.53;42.66;56.19;;
70077;Laerm;57448;51.490;5.436;2023-06-22T09:45:49;46.31;42.07;51.41;;
70077;Laerm;57448;51.490;5.436;2023-06-22T09:47:51;46.58;42.07;57.44;;
70077;Laerm;57448;51.490;5.436;2023-06-22T09:49:52;56.05;41.65;74.04;;
70077;Laerm;57448;51.490;5.436;2023-06-22T09:51:55;60.76;42.30;75.01;;
70077;Laerm;57448;51.490;5.436;2023-06-22T09:53:58;48.24;41.92;67.53;;
70077;Laerm;57448;51.490;5.436;2023-06-22T09:55:59;46.96;42.09;56.04;;
70077;Laerm;57448;51.490;5.436;2023-06-22T09:58:01;47.18;41.91;56.60;;
70077;Laerm;57448;51.490;5.436;2023-06-22T10:00:03;46.51;42.09;53.13;;
70077;Laerm;57448;51.490;5.436;2023-06-22T10:02:08;46.24;42.20;50.64;;
70077;Laerm;57448;51.490;5.436;2023-06-22T10:04:10;45.61;41.88;52.68;;
70077;Laerm;57448;51.490;5.436;2023-06-22T10:06:11;50.98;42.12;69.64;;
70077;Laerm;57448;51.490;5.436;2023-06-22T10:08:13;49.20;42.03;67.02;;
70077;Laerm;57448;51.490;5.436;2023-06-22T10:10:15;47.04;42.92;53.73;;
70077;Laerm;57448;51.490;5.436;2023-06-22T10:12:17;45.71;42.65;50.71;;
70077;Laerm;57448;51.490;5.436;2023-06-22T10:14:18;45.55;42.17;50.14;;
70077;Laerm;57448;51.490;5.436;2023-06-22T10:16:19;46.66;42.69;54.65;;
70077;Laerm;57448;51.490;5.436;2023-06-22T10:18:21;47.11;43.61;53.52;;
70077;Laerm;57448;51.490;5.436;2023-06-22T10:20:22;60.75;42.35;74.88;;
70077;Laerm;57448;51.490;5.436;2023-06-22T10:22:24;57.69;43.66;73.13;;
70077;Laerm;57448;51.490;5.436;2023-06-22T10:24:25;60.47;43.37;74.91;;
70077;Laerm;57448;51.490;5.436;2023-06-22T10:26:28;59.51;43.72;76.79;;
70077;Laerm;57448;51.490;5.436;2023-06-22T10:28:29;61.17;41.73;76.12;;
70077;Laerm;57448;51.490;5.436;2023-06-22T10:30:30;46.22;42.41;58.82;;
70077;Laerm;57448;51.490;5.436;2023-06-22T10:32:32;47.21;42.81;54.88;;
70077;Laerm;57448;51.490;5.436;2023-06-22T10:34:33;45.16;41.09;52.56;;
70077;Laerm;57448;51.490;5.436;2023-06-22T10:36:35;45.19;41.46;63.71;;
70077;Laerm;57448;51.490;5.436;2023-06-22T10:38:36;43.99;40.65;55.45;;
70077;Laerm;57448;51.490;5.436;2023-06-22T10:40:37;43.89;40.22;53.65;;
70077;Laerm;57448;51.490;5.436;2023-06-22T10:42:41;44.06;40.73;49.97;;
70077;Laerm;57448;51.490;5.436;2023-06-22T10:44:42;44.19;41.25;50.64;;
70077;Laerm;57448;51.490;5.436;2023-06-22T10:46:44;47.19;41.45;66.32;;
70077;Laerm;57448;51.490;5.436;2023-06-22T10:48:45;44.54;40.48;50.99;;
70077;Laerm;57448;51.490;5.436;2023-06-22T10:50:47;60.89;41.05;75.34;;
70077;Laerm;57448;51.490;5.436;2023-06-22T10:52:48;47.76;43.32;59.84;;
70077;Laerm;57448;51.490;5.436;2023-06-22T10:54:49;48.47;45.56;54.26;;
70077;Laerm;57448;51.490;5.436;2023-06-22T10:56:52;51.51;47.37;65.96;;
70077;Laerm;57448;51.490;5.436;2023-06-22T10:58:54;53.43;49.43;60.94;;
70077;Laerm;57448;51.490;5.436;2023-06-22T11:00:56;50.10;47.03;58.17;;
70077;Laerm;57448;51.490;5.436;2023-06-22T11:02:59;61.77;47.28;77.78;;
70077;Laerm;57448;51.490;5.436;2023-06-22T11:05:00;49.17;46.44;59.27;;
70077;Laerm;57448;51.490;5.436;2023-06-22T11:07:01;49.11;46.11;54.95;;
70077;Laerm;57448;51.490;5.436;2023-06-22T11:09:03;49.52;47.04;58.49;;
70077;Laerm;57448;51.490;5.436;2023-06-22T11:11:04;49.19;46.27;56.89;;
70077;Laerm;57448;51.490;5.436;2023-06-22T11:13:06;48.82;45.93;52.24;;
70077;Laerm;57448;51.490;5.436;2023-06-22T11:15:11;54.55;46.30;72.79;;
70077;Laerm;57448;51.490;5.436;2023-06-22T11:17:12;61.23;48.44;73.80;;
70077;Laerm;57448;51.490;5.436;2023-06-22T11:19:14;63.05;50.38;76.50;;
70077;Laerm;57448;51.490;5.436;2023-06-22T11:21:15;51.84;48.42;59.70;;
70077;Laerm;57448;51.490;5.436;2023-06-22T11:23:16;49.41;46.97;58.20;;